PWSweather.com
Personal Weather Stations
Station Observations
PACOSDEFERREIRA1
Pacos De Ferreira, PenamaiorPT

Pacos De FerreiraPenamaiorPT

Lat: 41.2814231, Lon: -8.398176000000035

Elevation: 900

Station Type: Oregon Scientific wmr200

Latest ConditionsUpdated 2:24:00 PM GMT Thursday, Nov 14, 2019
Currently Today's Max Today's Min Today's Average
Temperature 48.9°F9.4°C 52.3°F11.3°C 43.3°F6.3°C 47.4°F8.6°C
Dew Point 44.6°F7.0°C 50.0°F10.0°C 41.0°F5.0°C 44.2°F6.8°C
Winds 13.4 mph NW21.6 kmh NW 20.4 mph -32.8 kmh - - 6.5 mph 10.5 kmh
Wind Gusts 24.4 mph39.3 kmh 29.5 mph47.5 kmh - -
Humidity 83% 91% 73% 87%
Pressure 29.74 in1007.1 mb 29.92 in1013.2 mb 29.71 in1006.1 mb -
Precipitation - 0.75 in19.1 mm - -
Hour Temp Dew Point Humidity Winds Wind Gusts Pressure Precip Precip Rate Daily Precip Total
02:24 PM 48.9°F9.4°C 44.6°F7.0°C 83% 13.4 mph NW21.6 kmh NW 24.4 mph39.3 kmh 29.74 in1007.1 mb 0.13 in3.3 mm 0.00 in0.0 mm 0.75 in19.1 mm
02:21 PM 49.1°F9.5°C 44.6°F7.0°C 82% 13.4 mph NW21.6 kmh NW 22.4 mph36.0 kmh 29.74 in1007.1 mb 0.13 in3.3 mm 0.80 in20.3 mm 0.75 in19.1 mm
02:18 PM 49.3°F9.6°C 44.6°F7.0°C 83% 16.3 mph NW26.2 kmh NW 22.4 mph36.0 kmh 29.74 in1007.1 mb 0.09 in2.3 mm 0.00 in0.0 mm 0.71 in18.0 mm
02:15 PM 49.3°F9.6°C 44.6°F7.0°C 84% 5.8 mph NNW9.3 kmh NNW 14.5 mph23.3 kmh 29.74 in1007.1 mb 0.09 in2.3 mm 0.00 in0.0 mm 0.71 in18.0 mm
02:12 PM 49.5°F9.7°C 44.6°F7.0°C 84% 5.8 mph NNW9.3 kmh NNW 13.2 mph21.2 kmh 29.74 in1007.1 mb 0.09 in2.3 mm 0.00 in0.0 mm 0.71 in18.0 mm
02:09 PM 49.5°F9.7°C 44.6°F7.0°C 84% 7.8 mph NNW12.6 kmh NNW 16.8 mph27.0 kmh 29.74 in1007.1 mb 0.09 in2.3 mm 0.00 in0.0 mm 0.71 in18.0 mm
02:06 PM 49.6°F9.8°C 44.6°F7.0°C 83% 9.2 mph NW14.8 kmh NW 16.8 mph27.0 kmh 29.74 in1007.1 mb 0.09 in2.3 mm 0.00 in0.0 mm 0.71 in18.0 mm
02:03 PM 49.6°F9.8°C 44.6°F7.0°C 83% 7.2 mph NW11.6 kmh NW 16.8 mph27.0 kmh 29.74 in1007.1 mb 0.09 in2.3 mm 0.00 in0.0 mm 0.71 in18.0 mm
02:00 PM 49.6°F9.8°C 44.6°F7.0°C 82% 7.8 mph NW12.6 kmh NW 19.7 mph31.7 kmh 29.74 in1007.1 mb 0.09 in2.3 mm 0.00 in0.0 mm 0.71 in18.0 mm
01:57 PM 49.6°F9.8°C 44.6°F7.0°C 82% 10.5 mph NW16.9 kmh NW 19.7 mph31.7 kmh 29.74 in1007.1 mb 0.09 in2.3 mm 0.00 in0.0 mm 0.71 in18.0 mm
01:54 PM 49.5°F9.7°C 44.6°F7.0°C 81% 10.1 mph NW16.3 kmh NW 19.7 mph31.7 kmh 29.74 in1007.1 mb 0.09 in2.3 mm 0.00 in0.0 mm 0.71 in18.0 mm
01:51 PM 49.5°F9.7°C 44.6°F7.0°C 81% 14.8 mph NW23.8 kmh NW 23.9 mph38.5 kmh 29.74 in1007.1 mb 0.09 in2.3 mm 0.00 in0.0 mm 0.71 in18.0 mm
01:48 PM 49.5°F9.7°C 42.8°F6.0°C 79% 13.2 mph NW21.2 kmh NW 25.1 mph40.4 kmh 29.74 in1007.1 mb 0.09 in2.3 mm 0.00 in0.0 mm 0.71 in18.0 mm
01:45 PM 49.6°F9.8°C 42.8°F6.0°C 78% 9.8 mph NW15.8 kmh NW 26.6 mph42.8 kmh 29.74 in1007.1 mb 0.09 in2.3 mm 0.00 in0.0 mm 0.71 in18.0 mm
01:42 PM 50.5°F10.3°C 42.8°F6.0°C 75% 15.4 mph NW24.8 kmh NW 26.6 mph42.8 kmh 29.74 in1007.1 mb 0.09 in2.3 mm 1.80 in45.7 mm 0.71 in18.0 mm
01:39 PM 51.6°F10.9°C 42.8°F6.0°C 73% 13.9 mph NW22.4 kmh NW 26.6 mph42.8 kmh 29.71 in1006.1 mb 0.00 in0.0 mm 0.00 in0.0 mm 0.62 in15.7 mm
01:36 PM 51.8°F11.0°C 44.6°F7.0°C 74% 13.0 mph NW20.9 kmh NW 23.5 mph37.8 kmh 29.71 in1006.1 mb 0.00 in0.0 mm 0.00 in0.0 mm 0.62 in15.7 mm
01:33 PM 52.0°F11.1°C 44.6°F7.0°C 74% 8.1 mph NW13.0 kmh NW 20.6 mph33.2 kmh 29.71 in1006.1 mb 0.00 in0.0 mm 0.00 in0.0 mm 0.62 in15.7 mm
01:30 PM 52.2°F11.2°C 44.6°F7.0°C 74% 13.9 mph NW22.4 kmh NW 25.7 mph41.4 kmh 29.71 in1006.1 mb 0.00 in0.0 mm 0.00 in0.0 mm 0.62 in15.7 mm
01:27 PM 52.3°F11.3°C 44.6°F7.0°C 74% 7.8 mph NW12.6 kmh NW 29.5 mph47.5 kmh 29.71 in1006.1 mb 0.00 in0.0 mm 0.00 in0.0 mm 0.62 in15.7 mm
01:24 PM 52.3°F11.3°C 44.6°F7.0°C 73% 11.2 mph NW18.0 kmh NW 29.5 mph47.5 kmh 29.74 in1007.1 mb 0.00 in0.0 mm 0.00 in0.0 mm 0.62 in15.7 mm
01:21 PM 52.3°F11.3°C 44.6°F7.0°C 73% 20.4 mph NW32.8 kmh NW 29.5 mph47.5 kmh 29.74 in1007.1 mb 0.00 in0.0 mm 0.00 in0.0 mm 0.62 in15.7 mm
01:18 PM 52.2°F11.2°C 44.6°F7.0°C 76% 7.6 mph NW12.2 kmh NW 20.6 mph33.2 kmh 29.74 in1007.1 mb 0.00 in0.0 mm 0.00 in0.0 mm 0.62 in15.7 mm
01:15 PM 52.0°F11.1°C 44.6°F7.0°C 77% 12.3 mph NW19.8 kmh NW 21.3 mph34.3 kmh 29.74 in1007.1 mb 0.00 in0.0 mm 0.00 in0.0 mm 0.62 in15.7 mm
01:12 PM 51.6°F10.9°C 44.6°F7.0°C 76% 7.2 mph NW11.6 kmh NW 21.3 mph34.3 kmh 29.74 in1007.1 mb 0.00 in0.0 mm 0.00 in0.0 mm 0.62 in15.7 mm
01:09 PM 51.6°F10.9°C 44.6°F7.0°C 76% 14.8 mph NW23.8 kmh NW 24.4 mph39.3 kmh 29.74 in1007.1 mb 0.00 in0.0 mm 0.00 in0.0 mm 0.62 in15.7 mm
01:06 PM 51.6°F10.9°C 46.4°F8.0°C 80% 8.7 mph NW14.0 kmh NW 24.4 mph39.3 kmh 29.74 in1007.1 mb 0.00 in0.0 mm 0.00 in0.0 mm 0.62 in15.7 mm
01:03 PM 51.6°F10.9°C 46.4°F8.0°C 79% 12.5 mph NW20.1 kmh NW 24.4 mph39.3 kmh 29.74 in1007.1 mb 0.04 in1.0 mm 0.00 in0.0 mm 0.62 in15.7 mm
01:00 PM 51.4°F10.8°C 46.4°F8.0°C 81% 8.1 mph WNW13.0 kmh WNW 23.9 mph38.5 kmh 29.74 in1007.1 mb 0.04 in1.0 mm 0.00 in0.0 mm 0.62 in15.7 mm
12:57 PM 51.3°F10.7°C 46.4°F8.0°C 81% 13.0 mph WNW20.9 kmh WNW 23.9 mph38.5 kmh 29.74 in1007.1 mb 0.04 in1.0 mm 0.00 in0.0 mm 0.62 in15.7 mm
12:54 PM 51.1°F10.6°C 46.4°F8.0°C 82% 13.2 mph WNW21.2 kmh WNW 25.7 mph41.4 kmh 29.74 in1007.1 mb 0.04 in1.0 mm 0.00 in0.0 mm 0.62 in15.7 mm
12:51 PM 51.1°F10.6°C 46.4°F8.0°C 82% 11.4 mph WNW18.3 kmh WNW 25.7 mph41.4 kmh 29.74 in1007.1 mb 0.04 in1.0 mm 0.00 in0.0 mm 0.62 in15.7 mm
12:48 PM 51.1°F10.6°C 46.4°F8.0°C 84% 14.3 mph NW23.0 kmh NW 25.7 mph41.4 kmh 29.74 in1007.1 mb 0.04 in1.0 mm 0.00 in0.0 mm 0.62 in15.7 mm
12:45 PM 51.1°F10.6°C 48.2°F9.0°C 85% 9.2 mph WNW14.8 kmh WNW 17.7 mph28.5 kmh 29.74 in1007.1 mb 0.04 in1.0 mm 0.00 in0.0 mm 0.62 in15.7 mm
12:42 PM 50.9°F10.5°C 48.2°F9.0°C 86% 11.4 mph WNW18.3 kmh WNW 19.0 mph30.6 kmh 29.74 in1007.1 mb 0.04 in1.0 mm 0.00 in0.0 mm 0.62 in15.7 mm
12:39 PM 50.7°F10.4°C 48.2°F9.0°C 87% 10.1 mph WNW16.3 kmh WNW 22.6 mph36.4 kmh 29.71 in1006.1 mb 0.04 in1.0 mm 0.00 in0.0 mm 0.62 in15.7 mm
12:36 PM 50.5°F10.3°C 48.2°F9.0°C 87% 11.4 mph WNW18.3 kmh WNW 22.6 mph36.4 kmh 29.71 in1006.1 mb 0.04 in1.0 mm 0.00 in0.0 mm 0.62 in15.7 mm
12:33 PM 50.4°F10.2°C 48.2°F9.0°C 87% 15.2 mph WNW24.5 kmh WNW 22.6 mph36.4 kmh 29.71 in1006.1 mb 0.04 in1.0 mm 0.00 in0.0 mm 0.62 in15.7 mm
12:30 PM 50.2°F10.1°C 46.4°F8.0°C 87% 8.7 mph WNW14.0 kmh WNW 15.4 mph24.8 kmh 29.71 in1006.1 mb 0.04 in1.0 mm 0.00 in0.0 mm 0.62 in15.7 mm
12:27 PM 50.2°F10.1°C 46.4°F8.0°C 87% 4.5 mph WNW7.2 kmh WNW 26.4 mph42.5 kmh 29.71 in1006.1 mb 0.04 in1.0 mm 0.00 in0.0 mm 0.62 in15.7 mm
12:24 PM 50.2°F10.1°C 46.4°F8.0°C 88% 10.3 mph WNW16.6 kmh WNW 26.4 mph42.5 kmh 29.71 in1006.1 mb 0.04 in1.0 mm 0.00 in0.0 mm 0.62 in15.7 mm
12:21 PM 50.0°F10.0°C 46.4°F8.0°C 87% 13.2 mph WNW21.2 kmh WNW 26.4 mph42.5 kmh 29.71 in1006.1 mb 0.04 in1.0 mm 0.00 in0.0 mm 0.62 in15.7 mm
12:18 PM 49.6°F9.8°C 46.4°F8.0°C 88% 9.2 mph W14.8 kmh W 24.2 mph38.9 kmh 29.71 in1006.1 mb 0.04 in1.0 mm 0.00 in0.0 mm 0.62 in15.7 mm
12:15 PM 49.6°F9.8°C 46.4°F8.0°C 88% 8.5 mph W13.7 kmh W 24.2 mph38.9 kmh 29.71 in1006.1 mb 0.04 in1.0 mm 0.00 in0.0 mm 0.62 in15.7 mm
12:12 PM 49.3°F9.6°C 46.4°F8.0°C 89% 9.2 mph WSW14.8 kmh WSW 12.5 mph20.1 kmh 29.71 in1006.1 mb 0.04 in1.0 mm 0.00 in0.0 mm 0.62 in15.7 mm
12:09 PM 49.3°F9.6°C 46.4°F8.0°C 88% 3.1 mph WSW5.0 kmh WSW 8.5 mph13.7 kmh 29.74 in1007.1 mb 0.04 in1.0 mm 0.00 in0.0 mm 0.62 in15.7 mm
12:06 PM 49.1°F9.5°C 46.4°F8.0°C 88% 5.6 mph WSW9.0 kmh WSW 8.5 mph13.7 kmh 29.74 in1007.1 mb 0.04 in1.0 mm 0.80 in20.3 mm 0.62 in15.7 mm
12:03 PM 49.1°F9.5°C 46.4°F8.0°C 88% 5.4 mph WSW8.7 kmh WSW 8.5 mph13.7 kmh 29.74 in1007.1 mb 0.00 in0.0 mm 0.00 in0.0 mm 0.58 in14.7 mm
12:00 PM 49.1°F9.5°C 46.4°F8.0°C 89% 3.4 mph SW5.5 kmh SW 7.4 mph11.9 kmh 29.74 in1007.1 mb 0.00 in0.0 mm 0.00 in0.0 mm 0.58 in14.7 mm
11:57 AM 49.1°F9.5°C 46.4°F8.0°C 89% 2.2 mph SW3.5 kmh SW 7.4 mph11.9 kmh 29.74 in1007.1 mb 0.00 in0.0 mm 0.00 in0.0 mm 0.58 in14.7 mm
11:54 AM 49.1°F9.5°C 46.4°F8.0°C 89% 3.1 mph SW5.0 kmh SW 6.5 mph10.5 kmh 29.74 in1007.1 mb 0.00 in0.0 mm 0.00 in0.0 mm 0.58 in14.7 mm
11:51 AM 49.1°F9.5°C 46.4°F8.0°C 89% 3.4 mph SW5.5 kmh SW 6.3 mph10.1 kmh 29.74 in1007.1 mb 0.00 in0.0 mm 0.00 in0.0 mm 0.58 in14.7 mm
11:48 AM 48.6°F9.2°C 46.4°F8.0°C 89% 3.1 mph SW5.0 kmh SW 6.0 mph9.7 kmh 29.74 in1007.1 mb 0.00 in0.0 mm 0.00 in0.0 mm 0.58 in14.7 mm
11:45 AM 48.0°F8.9°C 46.4°F8.0°C 89% 2.7 mph SW4.3 kmh SW 6.0 mph9.7 kmh 29.74 in1007.1 mb 0.00 in0.0 mm 0.00 in0.0 mm 0.58 in14.7 mm
11:42 AM 47.8°F8.8°C 46.4°F8.0°C 89% 2.0 mph SW3.2 kmh SW 6.0 mph9.7 kmh 29.74 in1007.1 mb 0.00 in0.0 mm 0.00 in0.0 mm 0.58 in14.7 mm
11:39 AM 47.7°F8.7°C 44.6°F7.0°C 88% 2.2 mph SSW3.5 kmh SSW 6.3 mph10.1 kmh 29.74 in1007.1 mb 0.00 in0.0 mm 0.00 in0.0 mm 0.58 in14.7 mm
11:36 AM 47.5°F8.6°C 44.6°F7.0°C 88% 2.9 mph SSW4.7 kmh SSW 7.8 mph12.6 kmh 29.74 in1007.1 mb 0.04 in1.0 mm 0.00 in0.0 mm 0.58 in14.7 mm
11:33 AM 47.5°F8.6°C 44.6°F7.0°C 88% 4.5 mph SSW7.2 kmh SSW 7.8 mph12.6 kmh 29.74 in1007.1 mb 0.04 in1.0 mm 0.00 in0.0 mm 0.58 in14.7 mm
11:30 AM 47.5°F8.6°C 44.6°F7.0°C 88% 5.6 mph SSW9.0 kmh SSW 7.8 mph12.6 kmh 29.74 in1007.1 mb 0.08 in2.0 mm 0.00 in0.0 mm 0.58 in14.7 mm
11:27 AM 47.5°F8.6°C 44.6°F7.0°C 88% 4.5 mph SSW7.2 kmh SSW 6.3 mph10.1 kmh 29.74 in1007.1 mb 0.08 in2.0 mm 0.00 in0.0 mm 0.58 in14.7 mm
11:24 AM 47.5°F8.6°C 44.6°F7.0°C 87% 3.6 mph SSW5.8 kmh SSW 6.3 mph10.1 kmh 29.77 in1008.1 mb 0.08 in2.0 mm 0.00 in0.0 mm 0.58 in14.7 mm
11:21 AM 47.3°F8.5°C 44.6°F7.0°C 87% 4.9 mph SW7.9 kmh SW 6.3 mph10.1 kmh 29.77 in1008.1 mb 0.08 in2.0 mm 0.00 in0.0 mm 0.58 in14.7 mm
11:18 AM 47.5°F8.6°C 44.6°F7.0°C 87% 3.6 mph SW5.8 kmh SW 5.6 mph9.0 kmh 29.77 in1008.1 mb 0.08 in2.0 mm 0.00 in0.0 mm 0.58 in14.7 mm
11:15 AM 47.5°F8.6°C 44.6°F7.0°C 88% 4.3 mph WSW6.9 kmh WSW 5.6 mph9.0 kmh 29.77 in1008.1 mb 0.08 in2.0 mm 0.00 in0.0 mm 0.58 in14.7 mm
11:12 AM 47.5°F8.6°C 44.6°F7.0°C 89% 2.5 mph WSW4.0 kmh WSW 8.7 mph14.0 kmh 29.77 in1008.1 mb 0.08 in2.0 mm 0.00 in0.0 mm 0.58 in14.7 mm
11:09 AM 47.3°F8.5°C 44.6°F7.0°C 88% 1.6 mph W2.6 kmh W 10.1 mph16.3 kmh 29.80 in1009.1 mb 0.08 in2.0 mm 0.00 in0.0 mm 0.58 in14.7 mm
11:06 AM 46.9°F8.3°C 44.6°F7.0°C 88% 1.6 mph WNW2.6 kmh WNW 10.1 mph16.3 kmh 29.80 in1009.1 mb 0.08 in2.0 mm 0.00 in0.0 mm 0.58 in14.7 mm
11:03 AM 46.4°F8.0°C 42.8°F6.0°C 87% 6.0 mph WNW9.7 kmh WNW 10.1 mph16.3 kmh 29.80 in1009.1 mb 0.08 in2.0 mm 0.00 in0.0 mm 0.58 in14.7 mm
11:00 AM 46.2°F7.9°C 42.8°F6.0°C 87% 3.1 mph WNW5.0 kmh WNW 8.9 mph14.3 kmh 29.80 in1009.1 mb 0.08 in2.0 mm 0.00 in0.0 mm 0.58 in14.7 mm
10:57 AM 46.0°F7.8°C 42.8°F6.0°C 87% 6.9 mph NW11.1 kmh NW 12.5 mph20.1 kmh 29.80 in1009.1 mb 0.08 in2.0 mm 0.00 in0.0 mm 0.58 in14.7 mm
10:54 AM 46.0°F7.8°C 42.8°F6.0°C 87% 4.3 mph NW6.9 kmh NW 12.5 mph20.1 kmh 29.80 in1009.1 mb 0.08 in2.0 mm 0.00 in0.0 mm 0.58 in14.7 mm
10:51 AM 46.0°F7.8°C 42.8°F6.0°C 87% 4.9 mph WNW7.9 kmh WNW 17.0 mph27.4 kmh 29.80 in1009.1 mb 0.08 in2.0 mm 0.00 in0.0 mm 0.58 in14.7 mm
10:48 AM 46.0°F7.8°C 42.8°F6.0°C 86% 6.9 mph WNW11.1 kmh WNW 17.9 mph28.8 kmh 29.80 in1009.1 mb 0.08 in2.0 mm 0.00 in0.0 mm 0.58 in14.7 mm
10:45 AM 46.0°F7.8°C 42.8°F6.0°C 86% 8.7 mph WNW14.0 kmh WNW 23.0 mph37.0 kmh 29.80 in1009.1 mb 0.08 in2.0 mm 0.00 in0.0 mm 0.58 in14.7 mm
10:42 AM 46.0°F7.8°C 42.8°F6.0°C 86% 11.0 mph WNW17.7 kmh WNW 23.0 mph37.0 kmh 29.80 in1009.1 mb 0.08 in2.0 mm 0.00 in0.0 mm 0.58 in14.7 mm
10:39 AM 46.2°F7.9°C 42.8°F6.0°C 86% 6.7 mph W10.8 kmh W 23.0 mph37.0 kmh 29.77 in1008.1 mb 0.08 in2.0 mm 0.80 in20.3 mm 0.58 in14.7 mm
10:36 AM 46.4°F8.0°C 42.8°F6.0°C 86% 7.2 mph W11.6 kmh W 15.9 mph25.6 kmh 29.77 in1008.1 mb 0.04 in1.0 mm 0.00 in0.0 mm 0.54 in13.7 mm
10:33 AM 46.8°F8.2°C 42.8°F6.0°C 86% 5.4 mph SW8.7 kmh SW 8.1 mph13.0 kmh 29.77 in1008.1 mb 0.04 in1.0 mm 0.80 in20.3 mm 0.54 in13.7 mm
10:30 AM 46.8°F8.2°C 42.8°F6.0°C 86% 3.1 mph SW5.0 kmh SW 7.8 mph12.6 kmh 29.77 in1008.1 mb 0.00 in0.0 mm 0.00 in0.0 mm 0.50 in12.7 mm
10:27 AM 46.8°F8.2°C 42.8°F6.0°C 86% 2.5 mph SSW4.0 kmh SSW 7.8 mph12.6 kmh 29.77 in1008.1 mb 0.00 in0.0 mm 0.00 in0.0 mm 0.50 in12.7 mm
10:24 AM 46.9°F8.3°C 42.8°F6.0°C 86% 4.7 mph SW7.6 kmh SW 9.6 mph15.4 kmh 29.80 in1009.1 mb 0.00 in0.0 mm 0.00 in0.0 mm 0.50 in12.7 mm
10:21 AM 46.9°F8.3°C 42.8°F6.0°C 86% 3.1 mph SW5.0 kmh SW 9.6 mph15.4 kmh 29.80 in1009.1 mb 0.00 in0.0 mm 0.00 in0.0 mm 0.50 in12.7 mm
10:18 AM 46.9°F8.3°C 42.8°F6.0°C 86% 4.5 mph SW7.2 kmh SW 9.6 mph15.4 kmh 29.80 in1009.1 mb 0.00 in0.0 mm 0.00 in0.0 mm 0.50 in12.7 mm
10:15 AM 46.9°F8.3°C 42.8°F6.0°C 86% 4.9 mph SW7.9 kmh SW 8.5 mph13.7 kmh 29.80 in1009.1 mb 0.00 in0.0 mm 0.00 in0.0 mm 0.50 in12.7 mm
10:12 AM 46.9°F8.3°C 42.8°F6.0°C 86% 3.1 mph SW5.0 kmh SW 7.8 mph12.6 kmh 29.80 in1009.1 mb 0.00 in0.0 mm 0.00 in0.0 mm 0.50 in12.7 mm
10:09 AM 46.9°F8.3°C 42.8°F6.0°C 86% 5.4 mph SW8.7 kmh SW 9.8 mph15.8 kmh 29.80 in1009.1 mb 0.00 in0.0 mm 0.00 in0.0 mm 0.50 in12.7 mm
10:06 AM 46.9°F8.3°C 42.8°F6.0°C 85% 4.0 mph SW6.4 kmh SW 9.8 mph15.8 kmh 29.80 in1009.1 mb 0.00 in0.0 mm 0.00 in0.0 mm 0.50 in12.7 mm
10:03 AM 46.9°F8.3°C 42.8°F6.0°C 86% 2.7 mph SW4.3 kmh SW 9.8 mph15.8 kmh 29.80 in1009.1 mb 0.00 in0.0 mm 0.00 in0.0 mm 0.50 in12.7 mm
10:00 AM 46.9°F8.3°C 42.8°F6.0°C 85% 4.7 mph SSW7.6 kmh SSW 9.2 mph14.8 kmh 29.80 in1009.1 mb 0.00 in0.0 mm 0.00 in0.0 mm 0.50 in12.7 mm
09:57 AM 46.9°F8.3°C 42.8°F6.0°C 86% 4.3 mph SW6.9 kmh SW 9.2 mph14.8 kmh 29.80 in1009.1 mb 0.00 in0.0 mm 0.00 in0.0 mm 0.50 in12.7 mm
09:54 AM 47.1°F8.4°C 42.8°F6.0°C 86% 4.9 mph SW7.9 kmh SW 9.2 mph14.8 kmh 29.80 in1009.1 mb 0.00 in0.0 mm 0.00 in0.0 mm 0.50 in12.7 mm
09:51 AM 47.1°F8.4°C 42.8°F6.0°C 86% 4.3 mph SW6.9 kmh SW 8.9 mph14.3 kmh 29.80 in1009.1 mb 0.00 in0.0 mm 0.00 in0.0 mm 0.50 in12.7 mm
09:48 AM 46.9°F8.3°C 44.6°F7.0°C 87% 3.8 mph SSW6.1 kmh SSW 8.7 mph14.0 kmh 29.80 in1009.1 mb 0.00 in0.0 mm 0.00 in0.0 mm 0.50 in12.7 mm
09:45 AM 46.9°F8.3°C 44.6°F7.0°C 87% 4.5 mph SSW7.2 kmh SSW 8.7 mph14.0 kmh 29.80 in1009.1 mb 0.00 in0.0 mm 0.00 in0.0 mm 0.50 in12.7 mm
09:42 AM 46.8°F8.2°C 42.8°F6.0°C 86% 5.8 mph SW9.3 kmh SW 8.7 mph14.0 kmh 29.80 in1009.1 mb 0.04 in1.0 mm 0.00 in0.0 mm 0.50 in12.7 mm
09:39 AM 46.4°F8.0°C 42.8°F6.0°C 86% 4.5 mph SW7.2 kmh SW 9.6 mph15.4 kmh 29.80 in1009.1 mb 0.04 in1.0 mm 0.00 in0.0 mm 0.50 in12.7 mm
09:36 AM 46.0°F7.8°C 42.8°F6.0°C 86% 4.0 mph SW6.4 kmh SW 9.6 mph15.4 kmh 29.80 in1009.1 mb 0.04 in1.0 mm 0.00 in0.0 mm 0.50 in12.7 mm
09:33 AM 45.9°F7.7°C 42.8°F6.0°C 87% 4.9 mph SW7.9 kmh SW 9.6 mph15.4 kmh 29.80 in1009.1 mb 0.08 in2.0 mm 0.00 in0.0 mm 0.50 in12.7 mm
09:30 AM 45.7°F7.6°C 42.8°F6.0°C 88% 3.6 mph WSW5.8 kmh WSW 8.7 mph14.0 kmh 29.80 in1009.1 mb 0.08 in2.0 mm 0.00 in0.0 mm 0.50 in12.7 mm
09:27 AM 45.5°F7.5°C 42.8°F6.0°C 88% 4.0 mph WSW6.4 kmh WSW 8.7 mph14.0 kmh 29.80 in1009.1 mb 0.08 in2.0 mm 0.00 in0.0 mm 0.50 in12.7 mm
09:24 AM 45.1°F7.3°C 42.8°F6.0°C 88% 3.6 mph WSW5.8 kmh WSW 8.7 mph14.0 kmh 29.83 in1010.2 mb 0.08 in2.0 mm 0.00 in0.0 mm 0.50 in12.7 mm
09:21 AM 44.6°F7.0°C 41.0°F5.0°C 88% 2.5 mph WNW4.0 kmh WNW 5.6 mph9.0 kmh 29.83 in1010.2 mb 0.08 in2.0 mm 0.00 in0.0 mm 0.50 in12.7 mm
09:18 AM 44.2°F6.8°C 41.0°F5.0°C 88% 1.3 mph WNW2.1 kmh WNW 5.4 mph8.7 kmh 29.83 in1010.2 mb 0.08 in2.0 mm 0.00 in0.0 mm 0.50 in12.7 mm
09:15 AM 43.7°F6.5°C 41.0°F5.0°C 88% 2.2 mph NW3.5 kmh NW 5.4 mph8.7 kmh 29.83 in1010.2 mb 0.08 in2.0 mm 0.00 in0.0 mm 0.50 in12.7 mm
09:12 AM 43.5°F6.4°C 41.0°F5.0°C 88% 3.1 mph NNW5.0 kmh NNW 4.9 mph7.9 kmh 29.83 in1010.2 mb 0.08 in2.0 mm 0.00 in0.0 mm 0.50 in12.7 mm
09:09 AM 43.3°F6.3°C 41.0°F5.0°C 88% Calm Calm 5.6 mph9.0 kmh 29.83 in1010.2 mb 0.08 in2.0 mm 0.00 in0.0 mm 0.50 in12.7 mm
09:06 AM 43.3°F6.3°C 41.0°F5.0°C 87% 2.5 mph NNW4.0 kmh NNW 8.5 mph13.7 kmh 29.83 in1010.2 mb 0.13 in3.3 mm 0.00 in0.0 mm 0.50 in12.7 mm
09:03 AM 43.3°F6.3°C 41.0°F5.0°C 87% 3.1 mph NNW5.0 kmh NNW 8.5 mph13.7 kmh 29.83 in1010.2 mb 0.13 in3.3 mm 0.00 in0.0 mm 0.50 in12.7 mm
09:00 AM 43.3°F6.3°C 41.0°F5.0°C 87% 3.4 mph NNW5.5 kmh NNW 8.5 mph13.7 kmh 29.83 in1010.2 mb 0.13 in3.3 mm 0.00 in0.0 mm 0.50 in12.7 mm
08:57 AM 43.3°F6.3°C 41.0°F5.0°C 87% 6.7 mph NNW10.8 kmh NNW 8.5 mph13.7 kmh 29.83 in1010.2 mb 0.13 in3.3 mm 0.00 in0.0 mm 0.50 in12.7 mm
08:54 AM 43.3°F6.3°C 41.0°F5.0°C 87% 4.0 mph NW6.4 kmh NW 18.1 mph29.1 kmh 29.86 in1011.2 mb 0.13 in3.3 mm 0.00 in0.0 mm 0.50 in12.7 mm
08:51 AM 43.5°F6.4°C 41.0°F5.0°C 87% 4.5 mph NW7.2 kmh NW 18.1 mph29.1 kmh 29.86 in1011.2 mb 0.13 in3.3 mm 0.00 in0.0 mm 0.50 in12.7 mm
08:48 AM 43.5°F6.4°C 41.0°F5.0°C 87% 3.6 mph NW5.8 kmh NW 18.1 mph29.1 kmh 29.86 in1011.2 mb 0.13 in3.3 mm 0.00 in0.0 mm 0.50 in12.7 mm
08:45 AM 43.7°F6.5°C 41.0°F5.0°C 87% 12.3 mph WNW19.8 kmh WNW 18.1 mph29.1 kmh 29.86 in1011.2 mb 0.13 in3.3 mm 0.80 in20.3 mm 0.50 in12.7 mm
08:42 AM 43.7°F6.5°C 41.0°F5.0°C 87% 8.1 mph W13.0 kmh W 19.9 mph32.0 kmh 29.86 in1011.2 mb 0.09 in2.3 mm 0.00 in0.0 mm 0.46 in11.7 mm
08:39 AM 43.9°F6.6°C 41.0°F5.0°C 87% 2.0 mph WSW3.2 kmh WSW 19.9 mph32.0 kmh 29.83 in1010.2 mb 0.09 in2.3 mm 0.00 in0.0 mm 0.46 in11.7 mm
08:36 AM 44.1°F6.7°C 41.0°F5.0°C 87% 4.9 mph WSW7.9 kmh WSW 19.9 mph32.0 kmh 29.83 in1010.2 mb 0.09 in2.3 mm 0.80 in20.3 mm 0.46 in11.7 mm
08:33 AM 44.1°F6.7°C 41.0°F5.0°C 87% 11.4 mph WSW18.3 kmh WSW 19.9 mph32.0 kmh 29.83 in1010.2 mb 0.05 in1.3 mm 0.00 in0.0 mm 0.42 in10.7 mm
08:30 AM 43.7°F6.5°C 41.0°F5.0°C 87% 1.6 mph WNW2.6 kmh WNW 3.6 mph5.8 kmh 29.83 in1010.2 mb 0.05 in1.3 mm 0.00 in0.0 mm 0.42 in10.7 mm
08:27 AM 43.7°F6.5°C 41.0°F5.0°C 87% Calm Calm 3.6 mph5.8 kmh 29.83 in1010.2 mb 0.05 in1.3 mm 0.00 in0.0 mm 0.42 in10.7 mm
08:24 AM 43.7°F6.5°C 41.0°F5.0°C 87% 2.9 mph NW4.7 kmh NW 3.6 mph5.8 kmh 29.83 in1010.2 mb 0.05 in1.3 mm 0.00 in0.0 mm 0.42 in10.7 mm
08:21 AM 43.7°F6.5°C 41.0°F5.0°C 86% Calm Calm 5.6 mph9.0 kmh 29.83 in1010.2 mb 0.05 in1.3 mm 0.00 in0.0 mm 0.42 in10.7 mm
08:18 AM 43.7°F6.5°C 41.0°F5.0°C 86% 1.3 mph N2.1 kmh N 6.3 mph10.1 kmh 29.83 in1010.2 mb 0.05 in1.3 mm 0.00 in0.0 mm 0.42 in10.7 mm
08:15 AM 43.7°F6.5°C 41.0°F5.0°C 86% 2.7 mph N4.3 kmh N 6.5 mph10.5 kmh 29.83 in1010.2 mb 0.05 in1.3 mm 0.00 in0.0 mm 0.42 in10.7 mm
08:12 AM 43.7°F6.5°C 41.0°F5.0°C 86% 2.9 mph NNW4.7 kmh NNW 6.5 mph10.5 kmh 29.83 in1010.2 mb 0.05 in1.3 mm 1.00 in25.4 mm 0.42 in10.7 mm
08:09 AM 43.7°F6.5°C 41.0°F5.0°C 86% 4.3 mph NNW6.9 kmh NNW 6.5 mph10.5 kmh 29.83 in1010.2 mb 0.00 in0.0 mm 0.00 in0.0 mm 0.37 in9.4 mm
08:06 AM 43.9°F6.6°C 41.0°F5.0°C 86% 3.8 mph NNW6.1 kmh NNW 9.6 mph15.4 kmh 29.83 in1010.2 mb 0.00 in0.0 mm 0.00 in0.0 mm 0.37 in9.4 mm
08:03 AM 44.1°F6.7°C 41.0°F5.0°C 86% 5.8 mph NNW9.3 kmh NNW 9.6 mph15.4 kmh 29.83 in1010.2 mb 0.00 in0.0 mm 0.00 in0.0 mm 0.37 in9.4 mm
08:00 AM 44.1°F6.7°C 41.0°F5.0°C 87% 5.4 mph N8.7 kmh N 9.6 mph15.4 kmh 29.83 in1010.2 mb 0.00 in0.0 mm 0.00 in0.0 mm 0.37 in9.4 mm
07:57 AM 44.1°F6.7°C 41.0°F5.0°C 87% 6.7 mph N10.8 kmh N 9.6 mph15.4 kmh 29.83 in1010.2 mb 0.00 in0.0 mm 0.00 in0.0 mm 0.37 in9.4 mm
07:54 AM 44.1°F6.7°C 41.0°F5.0°C 87% 5.6 mph N9.0 kmh N 8.1 mph13.0 kmh 29.83 in1010.2 mb 0.00 in0.0 mm 0.00 in0.0 mm 0.37 in9.4 mm
07:51 AM 44.1°F6.7°C 41.0°F5.0°C 87% 3.4 mph N5.5 kmh N 7.8 mph12.6 kmh 29.83 in1010.2 mb 0.00 in0.0 mm 0.00 in0.0 mm 0.37 in9.4 mm
07:48 AM 44.1°F6.7°C 41.0°F5.0°C 87% 2.5 mph NNW4.0 kmh NNW 7.2 mph11.6 kmh 29.83 in1010.2 mb 0.00 in0.0 mm 0.00 in0.0 mm 0.37 in9.4 mm
07:45 AM 44.1°F6.7°C 41.0°F5.0°C 87% 2.7 mph NW4.3 kmh NW 7.2 mph11.6 kmh 29.83 in1010.2 mb 0.00 in0.0 mm 0.00 in0.0 mm 0.37 in9.4 mm
07:42 AM 44.1°F6.7°C 41.0°F5.0°C 87% 4.7 mph NW7.6 kmh NW 7.2 mph11.6 kmh 29.83 in1010.2 mb 0.00 in0.0 mm 0.00 in0.0 mm 0.37 in9.4 mm
07:39 AM 44.1°F6.7°C 41.0°F5.0°C 86% 4.3 mph NW6.9 kmh NW 7.2 mph11.6 kmh 29.83 in1010.2 mb 0.00 in0.0 mm 0.00 in0.0 mm 0.37 in9.4 mm
07:36 AM 44.1°F6.7°C 41.0°F5.0°C 86% 3.1 mph NW5.0 kmh NW 8.1 mph13.0 kmh 29.83 in1010.2 mb 0.00 in0.0 mm 0.00 in0.0 mm 0.37 in9.4 mm
07:33 AM 44.1°F6.7°C 41.0°F5.0°C 86% 3.8 mph NW6.1 kmh NW 8.1 mph13.0 kmh 29.83 in1010.2 mb 0.00 in0.0 mm 0.00 in0.0 mm 0.37 in9.4 mm
07:30 AM 44.1°F6.7°C 41.0°F5.0°C 86% 5.4 mph NW8.7 kmh NW 11.9 mph19.2 kmh 29.83 in1010.2 mb 0.00 in0.0 mm 0.00 in0.0 mm 0.37 in9.4 mm
07:27 AM 44.1°F6.7°C 41.0°F5.0°C 86% 3.8 mph NW6.1 kmh NW 11.9 mph19.2 kmh 29.83 in1010.2 mb 0.00 in0.0 mm 0.00 in0.0 mm 0.37 in9.4 mm
07:24 AM 44.1°F6.7°C 41.0°F5.0°C 86% 7.2 mph NW11.6 kmh NW 13.0 mph20.9 kmh 29.83 in1010.2 mb 0.00 in0.0 mm 0.00 in0.0 mm 0.37 in9.4 mm
07:21 AM 44.2°F6.8°C 41.0°F5.0°C 86% 5.8 mph NW9.3 kmh NW 13.0 mph20.9 kmh 29.83 in1010.2 mb 0.00 in0.0 mm 0.00 in0.0 mm 0.37 in9.4 mm
07:18 AM 44.2°F6.8°C 41.0°F5.0°C 86% 6.5 mph NW10.5 kmh NW 13.0 mph20.9 kmh 29.83 in1010.2 mb 0.00 in0.0 mm 0.00 in0.0 mm 0.37 in9.4 mm
07:15 AM 44.4°F6.9°C 41.0°F5.0°C 86% 8.1 mph NW13.0 kmh NW 13.0 mph20.9 kmh 29.83 in1010.2 mb 0.00 in0.0 mm 0.00 in0.0 mm 0.37 in9.4 mm
07:12 AM 44.4°F6.9°C 41.0°F5.0°C 86% 8.1 mph NW13.0 kmh NW 15.2 mph24.5 kmh 29.83 in1010.2 mb 0.00 in0.0 mm 0.00 in0.0 mm 0.37 in9.4 mm
07:09 AM 44.4°F6.9°C 41.0°F5.0°C 86% 9.4 mph NW15.1 kmh NW 19.2 mph30.9 kmh 29.83 in1010.2 mb 0.00 in0.0 mm 0.00 in0.0 mm 0.37 in9.4 mm
07:06 AM 44.4°F6.9°C 41.0°F5.0°C 86% 10.5 mph NW16.9 kmh NW 19.2 mph30.9 kmh 29.83 in1010.2 mb 0.00 in0.0 mm 0.00 in0.0 mm 0.37 in9.4 mm
07:03 AM 44.6°F7.0°C 41.0°F5.0°C 85% 9.6 mph W15.4 kmh W 19.2 mph30.9 kmh 29.83 in1010.2 mb 0.04 in1.0 mm 0.00 in0.0 mm 0.37 in9.4 mm
07:00 AM 44.4°F6.9°C 41.0°F5.0°C 86% 6.7 mph WSW10.8 kmh WSW 19.2 mph30.9 kmh 29.83 in1010.2 mb 0.04 in1.0 mm 0.00 in0.0 mm 0.37 in9.4 mm
06:57 AM 44.4°F6.9°C 41.0°F5.0°C 86% 3.6 mph WSW5.8 kmh WSW 10.1 mph16.3 kmh 29.80 in1009.1 mb 0.04 in1.0 mm 0.00 in0.0 mm 0.37 in9.4 mm
06:54 AM 44.2°F6.8°C 41.0°F5.0°C 86% 4.5 mph W7.2 kmh W 10.1 mph16.3 kmh 29.80 in1009.1 mb 0.04 in1.0 mm 0.00 in0.0 mm 0.37 in9.4 mm
06:51 AM 44.4°F6.9°C 41.0°F5.0°C 86% 3.6 mph W5.8 kmh W 10.1 mph16.3 kmh 29.80 in1009.1 mb 0.08 in2.0 mm 0.00 in0.0 mm 0.37 in9.4 mm
06:48 AM 44.2°F6.8°C 41.0°F5.0°C 86% 6.0 mph W9.7 kmh W 10.1 mph16.3 kmh 29.80 in1009.1 mb 0.08 in2.0 mm 0.00 in0.0 mm 0.37 in9.4 mm
06:45 AM 44.2°F6.8°C 41.0°F5.0°C 86% 4.7 mph W7.6 kmh W 7.8 mph12.6 kmh 29.80 in1009.1 mb 0.08 in2.0 mm 0.00 in0.0 mm 0.37 in9.4 mm
06:42 AM 44.4°F6.9°C 41.0°F5.0°C 86% 4.3 mph W6.9 kmh W 10.3 mph16.6 kmh 29.83 in1010.2 mb 0.08 in2.0 mm 0.00 in0.0 mm 0.37 in9.4 mm
06:39 AM 44.4°F6.9°C 41.0°F5.0°C 86% 4.3 mph W6.9 kmh W 10.3 mph16.6 kmh 29.83 in1010.2 mb 0.12 in3.0 mm 0.00 in0.0 mm 0.37 in9.4 mm
06:36 AM 44.4°F6.9°C 41.0°F5.0°C 86% 5.4 mph W8.7 kmh W 10.3 mph16.6 kmh 29.83 in1010.2 mb 0.12 in3.0 mm 0.00 in0.0 mm 0.37 in9.4 mm
06:33 AM 44.6°F7.0°C 41.0°F5.0°C 86% 6.9 mph WNW11.1 kmh WNW 17.2 mph27.7 kmh 29.83 in1010.2 mb 0.12 in3.0 mm 0.00 in0.0 mm 0.37 in9.4 mm
06:30 AM 44.6°F7.0°C 41.0°F5.0°C 86% 6.7 mph WNW10.8 kmh WNW 17.4 mph28.0 kmh 29.83 in1010.2 mb 0.12 in3.0 mm 0.00 in0.0 mm 0.37 in9.4 mm
06:27 AM 44.6°F7.0°C 41.0°F5.0°C 86% 8.5 mph WNW13.7 kmh WNW 17.4 mph28.0 kmh 29.83 in1010.2 mb 0.12 in3.0 mm 0.00 in0.0 mm 0.37 in9.4 mm
06:24 AM 44.6°F7.0°C 41.0°F5.0°C 86% 9.2 mph WNW14.8 kmh WNW 17.4 mph28.0 kmh 29.83 in1010.2 mb 0.12 in3.0 mm 0.00 in0.0 mm 0.37 in9.4 mm
06:21 AM 44.8°F7.1°C 41.0°F5.0°C 86% 8.5 mph WNW13.7 kmh WNW 15.7 mph25.3 kmh 29.83 in1010.2 mb 0.12 in3.0 mm 0.00 in0.0 mm 0.37 in9.4 mm
06:18 AM 44.8°F7.1°C 41.0°F5.0°C 87% 6.3 mph WNW10.1 kmh WNW 15.7 mph25.3 kmh 29.83 in1010.2 mb 0.12 in3.0 mm 0.00 in0.0 mm 0.37 in9.4 mm
06:15 AM 45.0°F7.2°C 42.8°F6.0°C 87% 12.1 mph WNW19.5 kmh WNW 20.1 mph32.3 kmh 29.83 in1010.2 mb 0.12 in3.0 mm 0.00 in0.0 mm 0.37 in9.4 mm
06:12 AM 45.0°F7.2°C 42.8°F6.0°C 88% 4.7 mph W7.6 kmh W 20.1 mph32.3 kmh 29.83 in1010.2 mb 0.12 in3.0 mm 0.00 in0.0 mm 0.37 in9.4 mm
06:09 AM 45.0°F7.2°C 42.8°F6.0°C 88% 5.6 mph W9.0 kmh W 20.1 mph32.3 kmh 29.83 in1010.2 mb 0.12 in3.0 mm 0.00 in0.0 mm 0.37 in9.4 mm
06:06 AM 45.0°F7.2°C 42.8°F6.0°C 88% 4.3 mph WSW6.9 kmh WSW 20.1 mph32.3 kmh 29.83 in1010.2 mb 0.12 in3.0 mm 0.80 in20.3 mm 0.37 in9.4 mm
06:03 AM 45.1°F7.3°C 42.8°F6.0°C 88% 6.7 mph W10.8 kmh W 14.8 mph23.8 kmh 29.83 in1010.2 mb 0.08 in2.0 mm 0.00 in0.0 mm 0.33 in8.4 mm
06:00 AM 45.0°F7.2°C 42.8°F6.0°C 89% 4.0 mph WNW6.4 kmh WNW 14.8 mph23.8 kmh 29.83 in1010.2 mb 0.08 in2.0 mm 0.00 in0.0 mm 0.33 in8.4 mm
05:57 AM 45.0°F7.2°C 42.8°F6.0°C 89% 6.9 mph NW11.1 kmh NW 14.8 mph23.8 kmh 29.83 in1010.2 mb 0.08 in2.0 mm 0.00 in0.0 mm 0.33 in8.4 mm
05:54 AM 45.0°F7.2°C 42.8°F6.0°C 89% 3.1 mph N5.0 kmh N 9.8 mph15.8 kmh 29.83 in1010.2 mb 0.08 in2.0 mm 0.80 in20.3 mm 0.33 in8.4 mm
05:51 AM 45.1°F7.3°C 42.8°F6.0°C 89% 3.6 mph N5.8 kmh N 9.8 mph15.8 kmh 29.83 in1010.2 mb 0.04 in1.0 mm 0.00 in0.0 mm 0.29 in7.4 mm
05:48 AM 45.3°F7.4°C 42.8°F6.0°C 89% 3.6 mph N5.8 kmh N 9.8 mph15.8 kmh 29.83 in1010.2 mb 0.04 in1.0 mm 0.00 in0.0 mm 0.29 in7.4 mm
05:45 AM 45.5°F7.5°C 42.8°F6.0°C 90% 6.7 mph N10.8 kmh N 9.8 mph15.8 kmh 29.83 in1010.2 mb 0.04 in1.0 mm 0.00 in0.0 mm 0.29 in7.4 mm
05:42 AM 45.5°F7.5°C 42.8°F6.0°C 89% 2.7 mph WSW4.3 kmh WSW 5.4 mph8.7 kmh 29.83 in1010.2 mb 0.04 in1.0 mm 0.80 in20.3 mm 0.29 in7.4 mm
05:39 AM 45.5°F7.5°C 42.8°F6.0°C 89% Calm Calm 4.0 mph6.4 kmh 29.83 in1010.2 mb 0.00 in0.0 mm 0.00 in0.0 mm 0.25 in6.4 mm
05:36 AM 45.5°F7.5°C 42.8°F6.0°C 89% 2.2 mph SW3.5 kmh SW 4.0 mph6.4 kmh 29.83 in1010.2 mb 0.00 in0.0 mm 0.00 in0.0 mm 0.25 in6.4 mm
05:33 AM 45.5°F7.5°C 42.8°F6.0°C 89% 2.2 mph SW3.5 kmh SW 3.6 mph5.8 kmh 29.83 in1010.2 mb 0.00 in0.0 mm 0.00 in0.0 mm 0.25 in6.4 mm
05:30 AM 45.5°F7.5°C 42.8°F6.0°C 89% 2.0 mph SW3.2 kmh SW 3.6 mph5.8 kmh 29.83 in1010.2 mb 0.04 in1.0 mm 0.00 in0.0 mm 0.25 in6.4 mm
05:27 AM 45.5°F7.5°C 42.8°F6.0°C 88% 1.1 mph WSW1.8 kmh WSW 3.6 mph5.8 kmh 29.83 in1010.2 mb 0.04 in1.0 mm 0.00 in0.0 mm 0.25 in6.4 mm
05:24 AM 45.5°F7.5°C 42.8°F6.0°C 88% 2.0 mph WSW3.2 kmh WSW 4.3 mph6.9 kmh 29.83 in1010.2 mb 0.04 in1.0 mm 0.00 in0.0 mm 0.25 in6.4 mm
05:21 AM 45.5°F7.5°C 42.8°F6.0°C 88% 2.0 mph W3.2 kmh W 6.5 mph10.5 kmh 29.83 in1010.2 mb 0.04 in1.0 mm 0.00 in0.0 mm 0.25 in6.4 mm
05:18 AM 45.5°F7.5°C 42.8°F6.0°C 88% 2.0 mph WNW3.2 kmh WNW 6.5 mph10.5 kmh 29.83 in1010.2 mb 0.04 in1.0 mm 0.00 in0.0 mm 0.25 in6.4 mm
05:15 AM 45.5°F7.5°C 42.8°F6.0°C 88% 3.8 mph WNW6.1 kmh WNW 6.5 mph10.5 kmh 29.83 in1010.2 mb 0.04 in1.0 mm 0.00 in0.0 mm 0.25 in6.4 mm
05:12 AM 45.5°F7.5°C 42.8°F6.0°C 89% 3.8 mph NW6.1 kmh NW 6.9 mph11.1 kmh 29.83 in1010.2 mb 0.04 in1.0 mm 0.00 in0.0 mm 0.25 in6.4 mm
05:09 AM 45.5°F7.5°C 42.8°F6.0°C 89% 4.0 mph NW6.4 kmh NW 8.7 mph14.0 kmh 29.83 in1010.2 mb 0.04 in1.0 mm 0.00 in0.0 mm 0.25 in6.4 mm
05:06 AM 45.5°F7.5°C 42.8°F6.0°C 89% 4.5 mph NW7.2 kmh NW 8.7 mph14.0 kmh 29.83 in1010.2 mb 0.04 in1.0 mm 0.00 in0.0 mm 0.25 in6.4 mm
05:03 AM 45.5°F7.5°C 42.8°F6.0°C 89% 3.6 mph NW5.8 kmh NW 8.7 mph14.0 kmh 29.83 in1010.2 mb 0.04 in1.0 mm 0.00 in0.0 mm 0.25 in6.4 mm
05:00 AM 45.5°F7.5°C 42.8°F6.0°C 89% 5.4 mph NW8.7 kmh NW 8.7 mph14.0 kmh 29.83 in1010.2 mb 0.04 in1.0 mm 0.00 in0.0 mm 0.25 in6.4 mm
04:57 AM 45.5°F7.5°C 42.8°F6.0°C 89% 3.6 mph NW5.8 kmh NW 7.6 mph12.2 kmh 29.83 in1010.2 mb 0.04 in1.0 mm 0.00 in0.0 mm 0.25 in6.4 mm
04:54 AM 45.5°F7.5°C 42.8°F6.0°C 89% 4.0 mph NW6.4 kmh NW 7.4 mph11.9 kmh 29.86 in1011.2 mb 0.04 in1.0 mm 0.00 in0.0 mm 0.25 in6.4 mm
04:51 AM 45.5°F7.5°C 42.8°F6.0°C 89% 5.4 mph NW8.7 kmh NW 7.4 mph11.9 kmh 29.86 in1011.2 mb 0.04 in1.0 mm 0.00 in0.0 mm 0.25 in6.4 mm
04:48 AM 45.7°F7.6°C 42.8°F6.0°C 89% 3.4 mph NW5.5 kmh NW 7.4 mph11.9 kmh 29.86 in1011.2 mb 0.04 in1.0 mm 0.00 in0.0 mm 0.25 in6.4 mm
04:45 AM 45.7°F7.6°C 42.8°F6.0°C 89% 3.1 mph NW5.0 kmh NW 12.3 mph19.8 kmh 29.86 in1011.2 mb 0.04 in1.0 mm 0.00 in0.0 mm 0.25 in6.4 mm
04:42 AM 45.7°F7.6°C 42.8°F6.0°C 89% 4.3 mph NW6.9 kmh NW 12.3 mph19.8 kmh 29.86 in1011.2 mb 0.04 in1.0 mm 0.00 in0.0 mm 0.25 in6.4 mm
04:39 AM 45.7°F7.6°C 42.8°F6.0°C 89% 2.2 mph NW3.5 kmh NW 12.3 mph19.8 kmh 29.86 in1011.2 mb 0.04 in1.0 mm 0.00 in0.0 mm 0.25 in6.4 mm
04:36 AM 45.9°F7.7°C 42.8°F6.0°C 89% 4.5 mph NW7.2 kmh NW 10.3 mph16.6 kmh 29.86 in1011.2 mb 0.04 in1.0 mm 0.80 in20.3 mm 0.25 in6.4 mm
04:33 AM 45.9°F7.7°C 42.8°F6.0°C 89% 6.0 mph NW9.7 kmh NW 9.4 mph15.1 kmh 29.86 in1011.2 mb 0.00 in0.0 mm 0.00 in0.0 mm 0.21 in5.3 mm
04:30 AM 45.9°F7.7°C 42.8°F6.0°C 89% 4.0 mph NW6.4 kmh NW 12.8 mph20.6 kmh 29.86 in1011.2 mb 0.00 in0.0 mm 0.00 in0.0 mm 0.21 in5.3 mm
04:27 AM 45.9°F7.7°C 42.8°F6.0°C 89% 4.0 mph NW6.4 kmh NW 12.8 mph20.6 kmh 29.86 in1011.2 mb 0.00 in0.0 mm 0.00 in0.0 mm 0.21 in5.3 mm
04:24 AM 45.9°F7.7°C 42.8°F6.0°C 89% 7.4 mph NW11.9 kmh NW 12.8 mph20.6 kmh 29.86 in1011.2 mb 0.00 in0.0 mm 0.00 in0.0 mm 0.21 in5.3 mm
04:21 AM 46.0°F7.8°C 42.8°F6.0°C 90% 5.8 mph NNW9.3 kmh NNW 12.8 mph20.6 kmh 29.86 in1011.2 mb 0.00 in0.0 mm 0.00 in0.0 mm 0.21 in5.3 mm
04:18 AM 46.0°F7.8°C 42.8°F6.0°C 90% 4.5 mph NW7.2 kmh NW 10.1 mph16.3 kmh 29.86 in1011.2 mb 0.00 in0.0 mm 0.00 in0.0 mm 0.21 in5.3 mm
04:15 AM 46.0°F7.8°C 42.8°F6.0°C 90% 6.5 mph NW10.5 kmh NW 8.5 mph13.7 kmh 29.86 in1011.2 mb 0.00 in0.0 mm 0.00 in0.0 mm 0.21 in5.3 mm
04:12 AM 46.2°F7.9°C 42.8°F6.0°C 90% 4.9 mph NW7.9 kmh NW 12.8 mph20.6 kmh 29.86 in1011.2 mb 0.00 in0.0 mm 0.00 in0.0 mm 0.21 in5.3 mm
04:09 AM 46.2°F7.9°C 42.8°F6.0°C 90% 3.1 mph NW5.0 kmh NW 12.8 mph20.6 kmh 29.86 in1011.2 mb 0.00 in0.0 mm 0.00 in0.0 mm 0.21 in5.3 mm
04:06 AM 46.2°F7.9°C 42.8°F6.0°C 90% 8.9 mph NW14.3 kmh NW 12.8 mph20.6 kmh 29.86 in1011.2 mb 0.04 in1.0 mm 0.00 in0.0 mm 0.21 in5.3 mm
04:03 AM 46.2°F7.9°C 42.8°F6.0°C 90% 6.5 mph NNW10.5 kmh NNW 8.1 mph13.0 kmh 29.86 in1011.2 mb 0.04 in1.0 mm 0.00 in0.0 mm 0.21 in5.3 mm
04:00 AM 46.4°F8.0°C 44.6°F7.0°C 89% 4.5 mph NW7.2 kmh NW 10.7 mph17.2 kmh 29.86 in1011.2 mb 0.04 in1.0 mm 0.00 in0.0 mm 0.21 in5.3 mm
03:57 AM 46.4°F8.0°C 44.6°F7.0°C 89% 5.8 mph NW9.3 kmh NW 10.7 mph17.2 kmh 29.86 in1011.2 mb 0.04 in1.0 mm 0.00 in0.0 mm 0.21 in5.3 mm
03:54 AM 46.4°F8.0°C 44.6°F7.0°C 89% 6.0 mph NW9.7 kmh NW 10.7 mph17.2 kmh 29.86 in1011.2 mb 0.04 in1.0 mm 0.00 in0.0 mm 0.21 in5.3 mm
03:51 AM 46.4°F8.0°C 44.6°F7.0°C 89% 7.4 mph NW11.9 kmh NW 10.5 mph16.9 kmh 29.86 in1011.2 mb 0.04 in1.0 mm 0.00 in0.0 mm 0.21 in5.3 mm
03:48 AM 46.6°F8.1°C 44.6°F7.0°C 89% 7.2 mph NW11.6 kmh NW 10.5 mph16.9 kmh 29.86 in1011.2 mb 0.04 in1.0 mm 0.00 in0.0 mm 0.21 in5.3 mm
03:45 AM 46.6°F8.1°C 44.6°F7.0°C 89% 5.6 mph NW9.0 kmh NW 17.4 mph28.0 kmh 29.86 in1011.2 mb 0.04 in1.0 mm 0.00 in0.0 mm 0.21 in5.3 mm
03:42 AM 46.8°F8.2°C 44.6°F7.0°C 89% 5.6 mph NW9.0 kmh NW 17.4 mph28.0 kmh 29.86 in1011.2 mb 0.04 in1.0 mm 0.00 in0.0 mm 0.21 in5.3 mm
03:39 AM 46.8°F8.2°C 44.6°F7.0°C 89% 8.1 mph NNW13.0 kmh NNW 17.4 mph28.0 kmh 29.86 in1011.2 mb 0.04 in1.0 mm 0.00 in0.0 mm 0.21 in5.3 mm
03:36 AM 46.9°F8.3°C 44.6°F7.0°C 89% 8.1 mph NW13.0 kmh NW 14.8 mph23.8 kmh 29.86 in1011.2 mb 0.04 in1.0 mm 0.00 in0.0 mm 0.21 in5.3 mm
03:33 AM 46.9°F8.3°C 44.6°F7.0°C 89% 11.4 mph NW18.3 kmh NW 14.8 mph23.8 kmh 29.86 in1011.2 mb 0.04 in1.0 mm 0.00 in0.0 mm 0.21 in5.3 mm
03:30 AM 47.1°F8.4°C 44.6°F7.0°C 89% 10.5 mph NW16.9 kmh NW 14.8 mph23.8 kmh 29.86 in1011.2 mb 0.09 in2.3 mm 0.00 in0.0 mm 0.21 in5.3 mm
03:27 AM 47.3°F8.5°C 44.6°F7.0°C 89% 6.7 mph NW10.8 kmh NW 17.2 mph27.7 kmh 29.86 in1011.2 mb 0.09 in2.3 mm 0.00 in0.0 mm 0.21 in5.3 mm
03:24 AM 47.3°F8.5°C 44.6°F7.0°C 89% 7.2 mph NW11.6 kmh NW 17.2 mph27.7 kmh 29.86 in1011.2 mb 0.09 in2.3 mm 0.00 in0.0 mm 0.21 in5.3 mm
03:21 AM 47.3°F8.5°C 44.6°F7.0°C 89% 11.0 mph NW17.7 kmh NW 17.2 mph27.7 kmh 29.86 in1011.2 mb 0.09 in2.3 mm 0.00 in0.0 mm 0.21 in5.3 mm
03:18 AM 47.5°F8.6°C 44.6°F7.0°C 89% 7.4 mph NW11.9 kmh NW 16.3 mph26.2 kmh 29.86 in1011.2 mb 0.09 in2.3 mm 0.00 in0.0 mm 0.21 in5.3 mm
03:15 AM 47.5°F8.6°C 44.6°F7.0°C 90% 8.1 mph NW13.0 kmh NW 23.3 mph37.5 kmh 29.86 in1011.2 mb 0.09 in2.3 mm 0.00 in0.0 mm 0.21 in5.3 mm
03:12 AM 47.7°F8.7°C 44.6°F7.0°C 90% 7.2 mph WNW11.6 kmh WNW 23.3 mph37.5 kmh 29.86 in1011.2 mb 0.12 in3.0 mm 0.00 in0.0 mm 0.21 in5.3 mm
03:09 AM 47.8°F8.8°C 46.4°F8.0°C 90% 13.0 mph NW20.9 kmh NW 23.3 mph37.5 kmh 29.83 in1010.2 mb 0.12 in3.0 mm 0.80 in20.3 mm 0.21 in5.3 mm
03:06 AM 47.8°F8.8°C 46.4°F8.0°C 91% 14.1 mph WNW22.7 kmh WNW 20.1 mph32.3 kmh 29.83 in1010.2 mb 0.08 in2.0 mm 0.00 in0.0 mm 0.17 in4.3 mm
03:03 AM 48.0°F8.9°C 46.4°F8.0°C 91% 9.4 mph NW15.1 kmh NW 20.1 mph32.3 kmh 29.83 in1010.2 mb 0.08 in2.0 mm 0.00 in0.0 mm 0.17 in4.3 mm
03:00 AM 48.0°F8.9°C 46.4°F8.0°C 91% 14.3 mph NW23.0 kmh NW 20.1 mph32.3 kmh 29.83 in1010.2 mb 0.08 in2.0 mm 0.00 in0.0 mm 0.17 in4.3 mm
02:57 AM 48.0°F8.9°C 46.4°F8.0°C 91% 8.5 mph NW13.7 kmh NW 16.6 mph26.7 kmh 29.83 in1010.2 mb 0.08 in2.0 mm 0.00 in0.0 mm 0.17 in4.3 mm
02:54 AM 48.0°F8.9°C 46.4°F8.0°C 91% 11.2 mph NW18.0 kmh NW 16.6 mph26.7 kmh 29.86 in1011.2 mb 0.08 in2.0 mm 0.00 in0.0 mm 0.17 in4.3 mm
02:51 AM 48.0°F8.9°C 46.4°F8.0°C 90% 9.2 mph NW14.8 kmh NW 15.2 mph24.5 kmh 29.86 in1011.2 mb 0.08 in2.0 mm 0.00 in0.0 mm 0.17 in4.3 mm
02:48 AM 48.0°F8.9°C 46.4°F8.0°C 90% 7.2 mph WNW11.6 kmh WNW 13.2 mph21.2 kmh 29.86 in1011.2 mb 0.08 in2.0 mm 0.00 in0.0 mm 0.17 in4.3 mm
02:45 AM 48.0°F8.9°C 46.4°F8.0°C 90% 4.9 mph WNW7.9 kmh WNW 13.2 mph21.2 kmh 29.86 in1011.2 mb 0.13 in3.3 mm 0.00 in0.0 mm 0.17 in4.3 mm
02:42 AM 48.0°F8.9°C 46.4°F8.0°C 90% 4.0 mph WNW6.4 kmh WNW 9.8 mph15.8 kmh 29.86 in1011.2 mb 0.13 in3.3 mm 0.00 in0.0 mm 0.17 in4.3 mm
02:39 AM 48.2°F9.0°C 46.4°F8.0°C 89% 5.6 mph WNW9.0 kmh WNW 17.4 mph28.0 kmh 29.86 in1011.2 mb 0.13 in3.3 mm 0.00 in0.0 mm 0.17 in4.3 mm
02:36 AM 48.2°F9.0°C 46.4°F8.0°C 89% 7.4 mph WNW11.9 kmh WNW 17.4 mph28.0 kmh 29.86 in1011.2 mb 0.13 in3.3 mm 0.00 in0.0 mm 0.17 in4.3 mm
02:33 AM 48.2°F9.0°C 46.4°F8.0°C 89% 5.8 mph WNW9.3 kmh WNW 17.4 mph28.0 kmh 29.86 in1011.2 mb 0.13 in3.3 mm 1.00 in25.4 mm 0.17 in4.3 mm
02:30 AM 48.4°F9.1°C 46.4°F8.0°C 89% 10.1 mph WNW16.3 kmh WNW 17.4 mph28.0 kmh 29.86 in1011.2 mb 0.08 in2.0 mm 0.00 in0.0 mm 0.12 in3.0 mm
02:27 AM 48.6°F9.2°C 46.4°F8.0°C 90% 13.2 mph WNW21.2 kmh WNW 15.4 mph24.8 kmh 29.86 in1011.2 mb 0.08 in2.0 mm 0.00 in0.0 mm 0.12 in3.0 mm
02:24 AM 48.6°F9.2°C 46.4°F8.0°C 90% 4.7 mph WNW7.6 kmh WNW 15.4 mph24.8 kmh 29.86 in1011.2 mb 0.08 in2.0 mm 0.00 in0.0 mm 0.12 in3.0 mm
02:21 AM 48.7°F9.3°C 46.4°F8.0°C 90% 12.8 mph WNW20.6 kmh WNW 19.9 mph32.0 kmh 29.86 in1011.2 mb 0.08 in2.0 mm 0.00 in0.0 mm 0.12 in3.0 mm
02:18 AM 48.7°F9.3°C 46.4°F8.0°C 90% 8.5 mph WNW13.7 kmh WNW 20.1 mph32.3 kmh 29.86 in1011.2 mb 0.08 in2.0 mm 0.60 in15.2 mm 0.12 in3.0 mm
02:15 AM 48.7°F9.3°C 46.4°F8.0°C 90% 11.2 mph WNW18.0 kmh WNW 20.1 mph32.3 kmh 29.86 in1011.2 mb 0.05 in1.3 mm 0.00 in0.0 mm 0.09 in2.3 mm
02:12 AM 48.9°F9.4°C 46.4°F8.0°C 90% 7.4 mph WNW11.9 kmh WNW 20.1 mph32.3 kmh 29.86 in1011.2 mb 0.05 in1.3 mm 0.00 in0.0 mm 0.09 in2.3 mm
02:09 AM 48.9°F9.4°C 46.4°F8.0°C 89% 12.3 mph WNW19.8 kmh WNW 20.1 mph32.3 kmh 29.89 in1012.2 mb 0.05 in1.3 mm 0.00 in0.0 mm 0.09 in2.3 mm
02:06 AM 48.9°F9.4°C 46.4°F8.0°C 89% 10.7 mph WNW17.2 kmh WNW 13.2 mph21.2 kmh 29.89 in1012.2 mb 0.05 in1.3 mm 0.00 in0.0 mm 0.09 in2.3 mm
02:03 AM 48.9°F9.4°C 46.4°F8.0°C 89% 6.5 mph WNW10.5 kmh WNW 14.5 mph23.3 kmh 29.89 in1012.2 mb 0.05 in1.3 mm 0.00 in0.0 mm 0.09 in2.3 mm
02:00 AM 49.1°F9.5°C 46.4°F8.0°C 89% 7.4 mph WNW11.9 kmh WNW 15.7 mph25.3 kmh 29.89 in1012.2 mb 0.05 in1.3 mm 0.00 in0.0 mm 0.09 in2.3 mm
01:57 AM 49.1°F9.5°C 46.4°F8.0°C 89% 8.1 mph WNW13.0 kmh WNW 16.8 mph27.0 kmh 29.89 in1012.2 mb 0.05 in1.3 mm 0.00 in0.0 mm 0.09 in2.3 mm
01:54 AM 49.3°F9.6°C 46.4°F8.0°C 89% 9.8 mph WNW15.8 kmh WNW 16.8 mph27.0 kmh 29.86 in1011.2 mb 0.05 in1.3 mm 0.00 in0.0 mm 0.09 in2.3 mm
01:51 AM 49.5°F9.7°C 46.4°F8.0°C 90% 12.5 mph WNW20.1 kmh WNW 16.8 mph27.0 kmh 29.86 in1011.2 mb 0.05 in1.3 mm 0.00 in0.0 mm 0.09 in2.3 mm
01:48 AM 49.6°F9.8°C 46.4°F8.0°C 90% 11.2 mph WNW18.0 kmh WNW 15.4 mph24.8 kmh 29.86 in1011.2 mb 0.05 in1.3 mm 1.00 in25.4 mm 0.09 in2.3 mm
01:45 AM 49.8°F9.9°C 48.2°F9.0°C 90% 11.4 mph WNW18.3 kmh WNW 22.8 mph36.7 kmh 29.86 in1011.2 mb 0.00 in0.0 mm 0.00 in0.0 mm 0.04 in1.0 mm
01:42 AM 50.0°F10.0°C 48.2°F9.0°C 89% 8.5 mph WNW13.7 kmh WNW 22.8 mph36.7 kmh 29.86 in1011.2 mb 0.00 in0.0 mm 0.00 in0.0 mm 0.04 in1.0 mm
01:39 AM 50.0°F10.0°C 48.2°F9.0°C 89% 10.1 mph WNW16.3 kmh WNW 22.8 mph36.7 kmh 29.89 in1012.2 mb 0.00 in0.0 mm 0.00 in0.0 mm 0.04 in1.0 mm
01:36 AM 50.2°F10.1°C 48.2°F9.0°C 90% 14.8 mph WNW23.8 kmh WNW 22.8 mph36.7 kmh 29.89 in1012.2 mb 0.00 in0.0 mm 0.00 in0.0 mm 0.04 in1.0 mm
01:33 AM 50.4°F10.2°C 48.2°F9.0°C 90% 10.5 mph WNW16.9 kmh WNW 15.2 mph24.5 kmh 29.89 in1012.2 mb 0.00 in0.0 mm 0.00 in0.0 mm 0.04 in1.0 mm
01:30 AM 50.4°F10.2°C 48.2°F9.0°C 89% 5.4 mph W8.7 kmh W 13.0 mph20.9 kmh 29.89 in1012.2 mb 0.00 in0.0 mm 0.00 in0.0 mm 0.04 in1.0 mm
01:27 AM 50.4°F10.2°C 48.2°F9.0°C 89% 3.4 mph W5.5 kmh W 13.0 mph20.9 kmh 29.89 in1012.2 mb 0.04 in1.0 mm 0.00 in0.0 mm 0.04 in1.0 mm
01:24 AM 50.5°F10.3°C 48.2°F9.0°C 89% 4.5 mph W7.2 kmh W 13.0 mph20.9 kmh 29.92 in1013.2 mb 0.04 in1.0 mm 0.00 in0.0 mm 0.04 in1.0 mm
01:21 AM 50.5°F10.3°C 48.2°F9.0°C 89% 6.9 mph W11.1 kmh W 11.4 mph18.3 kmh 29.92 in1013.2 mb 0.04 in1.0 mm 0.00 in0.0 mm 0.04 in1.0 mm
01:18 AM 50.5°F10.3°C 48.2°F9.0°C 89% 8.7 mph W14.0 kmh W 11.4 mph18.3 kmh 29.92 in1013.2 mb 0.04 in1.0 mm 0.00 in0.0 mm 0.04 in1.0 mm
01:15 AM 50.5°F10.3°C 48.2°F9.0°C 90% 6.3 mph W10.1 kmh W 10.3 mph16.6 kmh 29.92 in1013.2 mb 0.04 in1.0 mm 0.00 in0.0 mm 0.04 in1.0 mm
01:12 AM 50.7°F10.4°C 48.2°F9.0°C 90% 4.5 mph W7.2 kmh W 10.5 mph16.9 kmh 29.92 in1013.2 mb 0.04 in1.0 mm 0.00 in0.0 mm 0.04 in1.0 mm
01:09 AM 50.7°F10.4°C 48.2°F9.0°C 90% 5.8 mph W9.3 kmh W 13.9 mph22.4 kmh 29.92 in1013.2 mb 0.04 in1.0 mm 0.00 in0.0 mm 0.04 in1.0 mm
01:06 AM 50.9°F10.5°C 48.2°F9.0°C 90% 6.0 mph W9.7 kmh W 13.9 mph22.4 kmh 29.92 in1013.2 mb 0.04 in1.0 mm 0.00 in0.0 mm 0.04 in1.0 mm
01:03 AM 50.9°F10.5°C 48.2°F9.0°C 90% 4.5 mph W7.2 kmh W 15.4 mph24.8 kmh 29.92 in1013.2 mb 0.04 in1.0 mm 0.00 in0.0 mm 0.04 in1.0 mm
01:00 AM 50.9°F10.5°C 48.2°F9.0°C 90% 5.6 mph WNW9.0 kmh WNW 15.4 mph24.8 kmh 29.92 in1013.2 mb 0.04 in1.0 mm 0.00 in0.0 mm 0.04 in1.0 mm
12:57 AM 50.9°F10.5°C 48.2°F9.0°C 90% 7.2 mph WNW11.6 kmh WNW 15.4 mph24.8 kmh 29.92 in1013.2 mb 0.04 in1.0 mm 0.00 in0.0 mm 0.04 in1.0 mm
12:54 AM 50.9°F10.5°C 48.2°F9.0°C 90% 9.8 mph WNW15.8 kmh WNW 15.4 mph24.8 kmh 29.92 in1013.2 mb 0.04 in1.0 mm 0.00 in0.0 mm 0.04 in1.0 mm
12:51 AM 51.1°F10.6°C 48.2°F9.0°C 90% 9.8 mph WNW15.8 kmh WNW 15.2 mph24.5 kmh 29.92 in1013.2 mb 0.04 in1.0 mm 0.00 in0.0 mm 0.04 in1.0 mm
12:48 AM 51.1°F10.6°C 48.2°F9.0°C 90% 8.9 mph W14.3 kmh W 15.7 mph25.3 kmh 29.92 in1013.2 mb 0.04 in1.0 mm 0.00 in0.0 mm 0.04 in1.0 mm
12:45 AM 51.3°F10.7°C 48.2°F9.0°C 90% 11.9 mph W19.2 kmh W 17.2 mph27.7 kmh 29.92 in1013.2 mb 0.04 in1.0 mm 0.00 in0.0 mm 0.04 in1.0 mm
12:42 AM 51.3°F10.7°C 48.2°F9.0°C 90% 9.2 mph W14.8 kmh W 17.2 mph27.7 kmh 29.92 in1013.2 mb 0.04 in1.0 mm 0.00 in0.0 mm 0.04 in1.0 mm
12:39 AM 51.4°F10.8°C 48.2°F9.0°C 90% 4.7 mph W7.6 kmh W 17.2 mph27.7 kmh 29.92 in1013.2 mb 0.04 in1.0 mm 0.00 in0.0 mm 0.04 in1.0 mm
12:36 AM 51.4°F10.8°C 48.2°F9.0°C 91% 10.7 mph W17.2 kmh W 17.2 mph27.7 kmh 29.92 in1013.2 mb 0.04 in1.0 mm 0.00 in0.0 mm 0.04 in1.0 mm
12:33 AM 51.6°F10.9°C 50.0°F10.0°C 91% 7.6 mph W12.2 kmh W 15.2 mph24.5 kmh 29.92 in1013.2 mb 0.04 in1.0 mm 0.00 in0.0 mm 0.04 in1.0 mm
12:30 AM 51.6°F10.9°C 50.0°F10.0°C 91% 6.3 mph W10.1 kmh W 14.8 mph23.8 kmh 29.92 in1013.2 mb 0.04 in1.0 mm 0.00 in0.0 mm 0.04 in1.0 mm
12:27 AM 51.6°F10.9°C 50.0°F10.0°C 91% 2.7 mph W4.3 kmh W 14.8 mph23.8 kmh 29.92 in1013.2 mb 0.04 in1.0 mm 0.00 in0.0 mm 0.08 in2.0 mm
12:24 AM 51.6°F10.9°C 50.0°F10.0°C 91% 6.5 mph WNW10.5 kmh WNW 14.8 mph23.8 kmh 29.89 in1012.2 mb 0.04 in1.0 mm 0.00 in0.0 mm 0.08 in2.0 mm
12:21 AM 51.6°F10.9°C 50.0°F10.0°C 91% 10.5 mph W16.9 kmh W 14.8 mph23.8 kmh 29.89 in1012.2 mb 0.04 in1.0 mm 0.00 in0.0 mm 0.08 in2.0 mm
12:18 AM 51.6°F10.9°C 50.0°F10.0°C 91% 4.5 mph WNW7.2 kmh WNW 12.3 mph19.8 kmh 29.89 in1012.2 mb 0.04 in1.0 mm 0.00 in0.0 mm 0.08 in2.0 mm
12:15 AM 51.6°F10.9°C 50.0°F10.0°C 91% 5.8 mph WNW9.3 kmh WNW 15.9 mph25.6 kmh 29.89 in1012.2 mb 0.04 in1.0 mm 0.00 in0.0 mm 0.08 in2.0 mm
12:12 AM 51.6°F10.9°C 50.0°F10.0°C 91% 4.3 mph W6.9 kmh W 15.9 mph25.6 kmh 29.89 in1012.2 mb 0.04 in1.0 mm 0.00 in0.0 mm 0.08 in2.0 mm
12:09 AM 51.6°F10.9°C 50.0°F10.0°C 91% 9.6 mph W15.4 kmh W 15.9 mph25.6 kmh 29.92 in1013.2 mb 0.04 in1.0 mm 0.00 in0.0 mm 0.08 in2.0 mm
12:06 AM 51.4°F10.8°C 48.2°F9.0°C 91% 7.8 mph W12.6 kmh W 15.7 mph25.3 kmh 29.92 in1013.2 mb 0.08 in2.0 mm 0.00 in0.0 mm 0.08 in2.0 mm
12:03 AM 51.4°F10.8°C 48.2°F9.0°C 91% 5.4 mph W8.7 kmh W 15.7 mph25.3 kmh 29.92 in1013.2 mb 0.08 in2.0 mm 0.00 in0.0 mm 0.08 in2.0 mm
12:00 AM 51.4°F10.8°C 48.2°F9.0°C 91% 4.0 mph W6.4 kmh W 15.7 mph25.3 kmh 29.92 in1013.2 mb 0.08 in2.0 mm 0.00 in0.0 mm 0.08 in2.0 mm